sensor_id;sensor_type;location;lat;lon;timestamp;P1;durP1;ratioP1;P2;durP2;ratioP2
54263;SDS011;40178;53.042;6.406;2022-08-07T00:01:56;7.85;;;3.35;;
54263;SDS011;40178;53.042;6.406;2022-08-07T00:04:22;6.15;;;2.67;;
54263;SDS011;40178;53.042;6.406;2022-08-07T00:06:48;5.47;;;2.70;;
54263;SDS011;40178;53.042;6.406;2022-08-07T00:09:14;6.95;;;3.88;;
54263;SDS011;40178;53.042;6.406;2022-08-07T00:11:40;6.78;;;3.90;;
54263;SDS011;40178;53.042;6.406;2022-08-07T00:14:06;7.47;;;3.97;;
54263;SDS011;40178;53.042;6.406;2022-08-07T00:16:32;6.97;;;3.75;;
54263;SDS011;40178;53.042;6.406;2022-08-07T00:18:58;5.90;;;3.47;;
54263;SDS011;40178;53.042;6.406;2022-08-07T00:21:24;7.47;;;4.55;;
54263;SDS011;40178;53.042;6.406;2022-08-07T00:23:51;7.38;;;3.75;;
54263;SDS011;40178;53.042;6.406;2022-08-07T00:26:17;7.55;;;3.72;;
54263;SDS011;40178;53.042;6.406;2022-08-07T00:28:43;7.00;;;4.18;;
54263;SDS011;40178;53.042;6.406;2022-08-07T00:31:09;8.48;;;3.72;;
54263;SDS011;40178;53.042;6.406;2022-08-07T00:33:36;7.10;;;3.67;;
54263;SDS011;40178;53.042;6.406;2022-08-07T00:36:03;6.22;;;3.40;;
54263;SDS011;40178;53.042;6.406;2022-08-07T00:38:29;5.70;;;3.00;;
54263;SDS011;40178;53.042;6.406;2022-08-07T00:40:56;6.32;;;2.83;;
54263;SDS011;40178;53.042;6.406;2022-08-07T00:43:22;6.10;;;3.30;;
54263;SDS011;40178;53.042;6.406;2022-08-07T00:45:48;9.32;;;3.92;;
54263;SDS011;40178;53.042;6.406;2022-08-07T00:48:14;6.82;;;3.88;;
54263;SDS011;40178;53.042;6.406;2022-08-07T00:50:40;7.15;;;4.53;;
54263;SDS011;40178;53.042;6.406;2022-08-07T00:53:06;7.63;;;4.15;;
54263;SDS011;40178;53.042;6.406;2022-08-07T00:55:32;6.43;;;4.10;;
54263;SDS011;40178;53.042;6.406;2022-08-07T00:57:58;7.85;;;4.03;;
54263;SDS011;40178;53.042;6.406;2022-08-07T01:00:24;7.68;;;4.32;;
54263;SDS011;40178;53.042;6.406;2022-08-07T01:02:51;7.13;;;4.22;;
54263;SDS011;40178;53.042;6.406;2022-08-07T01:05:17;7.80;;;4.45;;
54263;SDS011;40178;53.042;6.406;2022-08-07T01:07:44;5.38;;;2.60;;
54263;SDS011;40178;53.042;6.406;2022-08-07T01:10:11;5.25;;;2.40;;
54263;SDS011;40178;53.042;6.406;2022-08-07T01:12:37;3.65;;;1.60;;
54263;SDS011;40178;53.042;6.406;2022-08-07T01:15:05;4.75;;;2.08;;
54263;SDS011;40178;53.042;6.406;2022-08-07T01:17:31;3.63;;;1.80;;
54263;SDS011;40178;53.042;6.406;2022-08-07T01:20:00;4.95;;;2.15;;
54263;SDS011;40178;53.042;6.406;2022-08-07T01:22:27;4.78;;;2.60;;
54263;SDS011;40178;53.042;6.406;2022-08-07T01:24:53;4.53;;;2.30;;
54263;SDS011;40178;53.042;6.406;2022-08-07T01:27:19;4.65;;;2.20;;
54263;SDS011;40178;53.042;6.406;2022-08-07T01:29:45;4.40;;;2.25;;
54263;SDS011;40178;53.042;6.406;2022-08-07T01:32:12;4.07;;;2.03;;
54263;SDS011;40178;53.042;6.406;2022-08-07T01:34:38;3.88;;;1.80;;
54263;SDS011;40178;53.042;6.406;2022-08-07T01:37:08;4.65;;;2.17;;
54263;SDS011;40178;53.042;6.406;2022-08-07T01:39:36;5.13;;;2.45;;
54263;SDS011;40178;53.042;6.406;2022-08-07T01:42:02;7.07;;;3.33;;
54263;SDS011;40178;53.042;6.406;2022-08-07T01:44:28;6.18;;;3.45;;
54263;SDS011;40178;53.042;6.406;2022-08-07T01:46:54;3.53;;;1.70;;
54263;SDS011;40178;53.042;6.406;2022-08-07T01:49:20;3.97;;;1.65;;
54263;SDS011;40178;53.042;6.406;2022-08-07T01:51:46;5.13;;;2.45;;
54263;SDS011;40178;53.042;6.406;2022-08-07T01:54:13;5.88;;;3.00;;
54263;SDS011;40178;53.042;6.406;2022-08-07T01:56:42;5.93;;;3.20;;
54263;SDS011;40178;53.042;6.406;2022-08-07T01:59:10;6.80;;;3.90;;
54263;SDS011;40178;53.042;6.406;2022-08-07T02:01:41;6.22;;;3.60;;
54263;SDS011;40178;53.042;6.406;2022-08-07T02:04:15;6.18;;;3.60;;
54263;SDS011;40178;53.042;6.406;2022-08-07T02:06:43;9.90;;;4.50;;
54263;SDS011;40178;53.042;6.406;2022-08-07T02:09:11;7.03;;;3.92;;
54263;SDS011;40178;53.042;6.406;2022-08-07T02:11:39;7.72;;;3.70;;
54263;SDS011;40178;53.042;6.406;2022-08-07T02:14:07;6.95;;;4.25;;
54263;SDS011;40178;53.042;6.406;2022-08-07T02:16:35;7.38;;;4.10;;
54263;SDS011;40178;53.042;6.406;2022-08-07T02:19:03;8.35;;;4.47;;
54263;SDS011;40178;53.042;6.406;2022-08-07T02:21:30;7.53;;;4.60;;
54263;SDS011;40178;53.042;6.406;2022-08-07T02:23:59;7.55;;;4.25;;
54263;SDS011;40178;53.042;6.406;2022-08-07T02:26:26;7.45;;;4.35;;
54263;SDS011;40178;53.042;6.406;2022-08-07T02:28:52;7.47;;;4.28;;
54263;SDS011;40178;53.042;6.406;2022-08-07T02:31:19;6.35;;;3.90;;
54263;SDS011;40178;53.042;6.406;2022-08-07T02:33:45;6.88;;;3.80;;
54263;SDS011;40178;53.042;6.406;2022-08-07T02:36:12;6.45;;;3.80;;
54263;SDS011;40178;53.042;6.406;2022-08-07T02:38:38;6.82;;;3.63;;
54263;SDS011;40178;53.042;6.406;2022-08-07T02:41:05;5.90;;;3.10;;
54263;SDS011;40178;53.042;6.406;2022-08-07T02:43:32;5.68;;;2.85;;
54263;SDS011;40178;53.042;6.406;2022-08-07T02:45:58;4.25;;;1.90;;
54263;SDS011;40178;53.042;6.406;2022-08-07T02:48:25;5.10;;;2.30;;
54263;SDS011;40178;53.042;6.406;2022-08-07T02:50:52;7.32;;;2.60;;
54263;SDS011;40178;53.042;6.406;2022-08-07T02:53:20;5.97;;;3.00;;
54263;SDS011;40178;53.042;6.406;2022-08-07T02:55:47;6.80;;;3.65;;
54263;SDS011;40178;53.042;6.406;2022-08-07T02:58:17;6.63;;;3.90;;
54263;SDS011;40178;53.042;6.406;2022-08-07T03:00:44;8.05;;;3.90;;
54263;SDS011;40178;53.042;6.406;2022-08-07T03:03:11;6.93;;;3.45;;
54263;SDS011;40178;53.042;6.406;2022-08-07T03:05:37;6.03;;;2.45;;
54263;SDS011;40178;53.042;6.406;2022-08-07T03:08:04;4.07;;;1.90;;
54263;SDS011;40178;53.042;6.406;2022-08-07T03:10:34;3.88;;;1.90;;
54263;SDS011;40178;53.042;6.406;2022-08-07T03:13:01;6.10;;;3.00;;
54263;SDS011;40178;53.042;6.406;2022-08-07T03:15:28;6.43;;;3.63;;
54263;SDS011;40178;53.042;6.406;2022-08-07T03:17:54;7.07;;;3.58;;
54263;SDS011;40178;53.042;6.406;2022-08-07T03:20:21;5.63;;;2.78;;
54263;SDS011;40178;53.042;6.406;2022-08-07T03:22:47;7.97;;;4.35;;
54263;SDS011;40178;53.042;6.406;2022-08-07T03:25:15;6.90;;;4.28;;
54263;SDS011;40178;53.042;6.406;2022-08-07T03:27:42;7.32;;;4.30;;
54263;SDS011;40178;53.042;6.406;2022-08-07T03:30:08;7.75;;;4.22;;
54263;SDS011;40178;53.042;6.406;2022-08-07T03:32:36;8.45;;;4.93;;
54263;SDS011;40178;53.042;6.406;2022-08-07T03:35:03;7.18;;;3.92;;
54263;SDS011;40178;53.042;6.406;2022-08-07T03:37:32;8.05;;;4.32;;
54263;SDS011;40178;53.042;6.406;2022-08-07T03:39:59;8.38;;;4.60;;
54263;SDS011;40178;53.042;6.406;2022-08-07T03:42:25;7.55;;;4.18;;
54263;SDS011;40178;53.042;6.406;2022-08-07T03:44:51;10.27;;;4.70;;
54263;SDS011;40178;53.042;6.406;2022-08-07T03:47:18;8.18;;;4.47;;
54263;SDS011;40178;53.042;6.406;2022-08-07T03:49:44;6.90;;;3.97;;
54263;SDS011;40178;53.042;6.406;2022-08-07T03:52:10;7.95;;;4.35;;
54263;SDS011;40178;53.042;6.406;2022-08-07T03:54:37;7.18;;;3.97;;
54263;SDS011;40178;53.042;6.406;2022-08-07T03:57:03;7.90;;;4.28;;
54263;SDS011;40178;53.042;6.406;2022-08-07T03:59:30;7.63;;;4.13;;
54263;SDS011;40178;53.042;6.406;2022-08-07T04:01:57;7.80;;;3.30;;
54263;SDS011;40178;53.042;6.406;2022-08-07T04:04:24;6.88;;;3.47;;
54263;SDS011;40178;53.042;6.406;2022-08-07T04:06:50;7.13;;;3.65;;
54263;SDS011;40178;53.042;6.406;2022-08-07T04:09:16;6.22;;;3.28;;
54263;SDS011;40178;53.042;6.406;2022-08-07T04:11:43;4.72;;;2.10;;
54263;SDS011;40178;53.042;6.406;2022-08-07T04:14:10;4.32;;;1.67;;
54263;SDS011;40178;53.042;6.406;2022-08-07T04:16:36;2.22;;;0.80;;
54263;SDS011;40178;53.042;6.406;2022-08-07T04:19:03;3.50;;;1.30;;
54263;SDS011;40178;53.042;6.406;2022-08-07T04:21:30;6.25;;;2.42;;
54263;SDS011;40178;53.042;6.406;2022-08-07T04:23:56;4.30;;;1.70;;
54263;SDS011;40178;53.042;6.406;2022-08-07T04:26:22;4.63;;;2.00;;
54263;SDS011;40178;53.042;6.406;2022-08-07T04:28:48;4.65;;;2.25;;
54263;SDS011;40178;53.042;6.406;2022-08-07T04:31:14;4.20;;;2.30;;
54263;SDS011;40178;53.042;6.406;2022-08-07T04:33:41;4.75;;;2.15;;
54263;SDS011;40178;53.042;6.406;2022-08-07T04:36:07;5.10;;;2.42;;
54263;SDS011;40178;53.042;6.406;2022-08-07T04:38:34;5.30;;;2.65;;
54263;SDS011;40178;53.042;6.406;2022-08-07T04:41:00;6.15;;;3.42;;
54263;SDS011;40178;53.042;6.406;2022-08-07T04:43:30;7.25;;;4.18;;
54263;SDS011;40178;53.042;6.406;2022-08-07T04:54:56;7.37;;;4.13;;
54263;SDS011;40178;53.042;6.406;2022-08-07T05:04:45;9.02;;;5.60;;
54263;SDS011;40178;53.042;6.406;2022-08-07T05:07:15;8.73;;;5.25;;
54263;SDS011;40178;53.042;6.406;2022-08-07T05:09:45;8.23;;;4.60;;
54263;SDS011;40178;53.042;6.406;2022-08-07T05:12:16;7.85;;;4.88;;
54263;SDS011;40178;53.042;6.406;2022-08-07T05:14:44;10.23;;;5.90;;
54263;SDS011;40178;53.042;6.406;2022-08-07T05:17:12;10.75;;;5.25;;
54263;SDS011;40178;53.042;6.406;2022-08-07T05:19:40;12.43;;;5.50;;
54263;SDS011;40178;53.042;6.406;2022-08-07T05:22:07;13.93;;;5.43;;
54263;SDS011;40178;53.042;6.406;2022-08-07T05:24:34;10.73;;;5.47;;
54263;SDS011;40178;53.042;6.406;2022-08-07T05:27:01;10.48;;;5.93;;
54263;SDS011;40178;53.042;6.406;2022-08-07T05:29:27;11.88;;;5.03;;
54263;SDS011;40178;53.042;6.406;2022-08-07T05:31:54;9.00;;;5.32;;
54263;SDS011;40178;53.042;6.406;2022-08-07T05:34:21;10.75;;;6.28;;
54263;SDS011;40178;53.042;6.406;2022-08-07T05:36:49;11.70;;;6.05;;
54263;SDS011;40178;53.042;6.406;2022-08-07T05:39:16;10.25;;;5.68;;
54263;SDS011;40178;53.042;6.406;2022-08-07T05:41:43;10.50;;;5.85;;
54263;SDS011;40178;53.042;6.406;2022-08-07T05:44:11;11.15;;;6.78;;
54263;SDS011;40178;53.042;6.406;2022-08-07T05:46:38;10.32;;;6.35;;
54263;SDS011;40178;53.042;6.406;2022-08-07T05:49:05;11.55;;;6.20;;
54263;SDS011;40178;53.042;6.406;2022-08-07T05:51:32;11.43;;;6.45;;
54263;SDS011;40178;53.042;6.406;2022-08-07T05:53:59;9.75;;;6.15;;
54263;SDS011;40178;53.042;6.406;2022-08-07T05:56:25;9.82;;;5.50;;
54263;SDS011;40178;53.042;6.406;2022-08-07T05:58:52;12.95;;;6.07;;
54263;SDS011;40178;53.042;6.406;2022-08-07T06:01:19;10.98;;;5.95;;
54263;SDS011;40178;53.042;6.406;2022-08-07T06:03:47;10.13;;;5.90;;
54263;SDS011;40178;53.042;6.406;2022-08-07T06:06:13;11.48;;;6.90;;
54263;SDS011;40178;53.042;6.406;2022-08-07T06:08:40;11.50;;;6.63;;
54263;SDS011;40178;53.042;6.406;2022-08-07T06:11:07;12.70;;;7.57;;
54263;SDS011;40178;53.042;6.406;2022-08-07T06:13:34;13.38;;;6.68;;
54263;SDS011;40178;53.042;6.406;2022-08-07T06:16:01;14.80;;;8.15;;
54263;SDS011;40178;53.042;6.406;2022-08-07T06:18:28;13.77;;;7.20;;
54263;SDS011;40178;53.042;6.406;2022-08-07T06:20:54;12.07;;;7.03;;
54263;SDS011;40178;53.042;6.406;2022-08-07T06:23:21;12.40;;;7.25;;
54263;SDS011;40178;53.042;6.406;2022-08-07T06:25:47;13.45;;;8.57;;
54263;SDS011;40178;53.042;6.406;2022-08-07T06:28:13;13.85;;;8.20;;
54263;SDS011;40178;53.042;6.406;2022-08-07T06:30:39;15.10;;;8.48;;
54263;SDS011;40178;53.042;6.406;2022-08-07T06:33:05;10.05;;;6.65;;
54263;SDS011;40178;53.042;6.406;2022-08-07T06:35:31;11.50;;;6.78;;
54263;SDS011;40178;53.042;6.406;2022-08-07T06:37:59;12.73;;;6.25;;
54263;SDS011;40178;53.042;6.406;2022-08-07T06:40:26;10.68;;;6.47;;
54263;SDS011;40178;53.042;6.406;2022-08-07T06:42:53;12.15;;;6.85;;
54263;SDS011;40178;53.042;6.406;2022-08-07T06:45:20;9.48;;;6.05;;
54263;SDS011;40178;53.042;6.406;2022-08-07T06:47:47;12.38;;;7.13;;
54263;SDS011;40178;53.042;6.406;2022-08-07T06:50:13;9.40;;;5.45;;
54263;SDS011;40178;53.042;6.406;2022-08-07T06:52:43;12.10;;;6.03;;
54263;SDS011;40178;53.042;6.406;2022-08-07T06:55:25;9.32;;;5.88;;
54263;SDS011;40178;53.042;6.406;2022-08-07T06:57:51;9.80;;;5.22;;
54263;SDS011;40178;53.042;6.406;2022-08-07T07:00:18;9.18;;;4.97;;
54263;SDS011;40178;53.042;6.406;2022-08-07T07:02:44;9.80;;;4.72;;
54263;SDS011;40178;53.042;6.406;2022-08-07T07:05:11;8.82;;;4.18;;
54263;SDS011;40178;53.042;6.406;2022-08-07T07:07:37;7.78;;;4.22;;
54263;SDS011;40178;53.042;6.406;2022-08-07T07:10:04;7.18;;;3.80;;
54263;SDS011;40178;53.042;6.406;2022-08-07T07:15:12;6.97;;;3.30;;
54263;SDS011;40178;53.042;6.406;2022-08-07T07:20:08;6.47;;;3.25;;
54263;SDS011;40178;53.042;6.406;2022-08-07T07:22:36;6.88;;;3.10;;
54263;SDS011;40178;53.042;6.406;2022-08-07T07:25:03;5.85;;;2.90;;
54263;SDS011;40178;53.042;6.406;2022-08-07T07:27:31;6.07;;;2.90;;
54263;SDS011;40178;53.042;6.406;2022-08-07T07:29:59;5.32;;;2.65;;
54263;SDS011;40178;53.042;6.406;2022-08-07T07:32:26;4.80;;;2.63;;
54263;SDS011;40178;53.042;6.406;2022-08-07T07:34:54;5.85;;;3.20;;
54263;SDS011;40178;53.042;6.406;2022-08-07T07:37:22;6.22;;;3.38;;
54263;SDS011;40178;53.042;6.406;2022-08-07T07:39:49;5.78;;;2.50;;
54263;SDS011;40178;53.042;6.406;2022-08-07T07:42:16;6.28;;;2.95;;
54263;SDS011;40178;53.042;6.406;2022-08-07T07:44:42;4.80;;;2.10;;
54263;SDS011;40178;53.042;6.406;2022-08-07T07:47:11;6.43;;;2.30;;
54263;SDS011;40178;53.042;6.406;2022-08-07T07:49:38;5.40;;;2.60;;
54263;SDS011;40178;53.042;6.406;2022-08-07T07:52:05;7.25;;;2.60;;
54263;SDS011;40178;53.042;6.406;2022-08-07T07:54:31;6.88;;;2.47;;
54263;SDS011;40178;53.042;6.406;2022-08-07T07:56:58;7.00;;;2.92;;
54263;SDS011;40178;53.042;6.406;2022-08-07T07:59:25;7.18;;;2.95;;
54263;SDS011;40178;53.042;6.406;2022-08-07T08:01:51;5.72;;;2.70;;
54263;SDS011;40178;53.042;6.406;2022-08-07T08:04:19;6.10;;;2.28;;
54263;SDS011;40178;53.042;6.406;2022-08-07T08:06:45;6.18;;;2.55;;
54263;SDS011;40178;53.042;6.406;2022-08-07T08:09:13;5.70;;;2.55;;
54263;SDS011;40178;53.042;6.406;2022-08-07T08:11:39;6.13;;;2.90;;
54263;SDS011;40178;53.042;6.406;2022-08-07T08:14:05;5.55;;;2.50;;
54263;SDS011;40178;53.042;6.406;2022-08-07T08:16:41;5.25;;;2.78;;
54263;SDS011;40178;53.042;6.406;2022-08-07T08:19:13;5.88;;;2.63;;
54263;SDS011;40178;53.042;6.406;2022-08-07T08:21:41;5.72;;;2.75;;
54263;SDS011;40178;53.042;6.406;2022-08-07T08:24:26;6.85;;;2.92;;
54263;SDS011;40178;53.042;6.406;2022-08-07T08:27:12;5.43;;;2.50;;
54263;SDS011;40178;53.042;6.406;2022-08-07T08:29:45;5.82;;;3.03;;
54263;SDS011;40178;53.042;6.406;2022-08-07T08:32:15;5.97;;;2.53;;
54263;SDS011;40178;53.042;6.406;2022-08-07T08:34:42;4.93;;;2.50;;
54263;SDS011;40178;53.042;6.406;2022-08-07T08:37:10;5.47;;;2.63;;
54263;SDS011;40178;53.042;6.406;2022-08-07T08:39:36;6.03;;;2.45;;
54263;SDS011;40178;53.042;6.406;2022-08-07T08:42:03;4.97;;;2.25;;
54263;SDS011;40178;53.042;6.406;2022-08-07T08:44:46;6.60;;;2.70;;
54263;SDS011;40178;53.042;6.406;2022-08-07T08:47:26;6.45;;;2.80;;
54263;SDS011;40178;53.042;6.406;2022-08-07T08:50:08;6.68;;;2.53;;
54263;SDS011;40178;53.042;6.406;2022-08-07T08:52:38;6.75;;;2.67;;
54263;SDS011;40178;53.042;6.406;2022-08-07T08:55:18;4.95;;;2.40;;
54263;SDS011;40178;53.042;6.406;2022-08-07T08:57:51;5.97;;;2.28;;
54263;SDS011;40178;53.042;6.406;2022-08-07T09:00:19;4.25;;;2.05;;
54263;SDS011;40178;53.042;6.406;2022-08-07T09:02:50;4.05;;;2.03;;
54263;SDS011;40178;53.042;6.406;2022-08-07T09:18:15;5.38;;;2.10;;
54263;SDS011;40178;53.042;6.406;2022-08-07T09:20:47;5.63;;;2.33;;
54263;SDS011;40178;53.042;6.406;2022-08-07T09:23:30;5.38;;;2.10;;
54263;SDS011;40178;53.042;6.406;2022-08-07T09:26:00;5.13;;;1.92;;
54263;SDS011;40178;53.042;6.406;2022-08-07T09:28:30;5.05;;;2.28;;
54263;SDS011;40178;53.042;6.406;2022-08-07T09:36:32;4.78;;;2.05;;
54263;SDS011;40178;53.042;6.406;2022-08-07T09:39:02;4.45;;;1.90;;
54263;SDS011;40178;53.042;6.406;2022-08-07T09:41:46;4.15;;;2.05;;
54263;SDS011;40178;53.042;6.406;2022-08-07T09:44:21;4.20;;;1.98;;
54263;SDS011;40178;53.042;6.406;2022-08-07T09:47:06;4.97;;;2.08;;
54263;SDS011;40178;53.042;6.406;2022-08-07T09:54:46;3.53;;;1.70;;
54263;SDS011;40178;53.042;6.406;2022-08-07T10:00:03;3.17;;;1.35;;
54263;SDS011;40178;53.042;6.406;2022-08-07T10:15:49;4.13;;;1.85;;
54263;SDS011;40178;53.042;6.406;2022-08-07T10:18:55;6.25;;;1.90;;
54263;SDS011;40178;53.042;6.406;2022-08-07T10:23:39;3.65;;;1.80;;
54263;SDS011;40178;53.042;6.406;2022-08-07T10:29:03;4.93;;;2.05;;
54263;SDS011;40178;53.042;6.406;2022-08-07T10:34:29;4.10;;;1.67;;
54263;SDS011;40178;53.042;6.406;2022-08-07T10:42:21;3.70;;;1.38;;
54263;SDS011;40178;53.042;6.406;2022-08-07T10:50:05;4.45;;;1.83;;
54263;SDS011;40178;53.042;6.406;2022-08-07T10:52:35;30.73;;;2.28;;
54263;SDS011;40178;53.042;6.406;2022-08-07T10:55:10;3.92;;;1.38;;
54263;SDS011;40178;53.042;6.406;2022-08-07T11:00:22;3.45;;;1.20;;
54263;SDS011;40178;53.042;6.406;2022-08-07T11:08:19;3.15;;;1.35;;
54263;SDS011;40178;53.042;6.406;2022-08-07T11:10:49;3.40;;;1.50;;
54263;SDS011;40178;53.042;6.406;2022-08-07T11:13:23;4.97;;;1.50;;
54263;SDS011;40178;53.042;6.406;2022-08-07T11:15:51;4.45;;;1.40;;
54263;SDS011;40178;53.042;6.406;2022-08-07T11:21:10;2.42;;;1.05;;
54263;SDS011;40178;53.042;6.406;2022-08-07T11:31:21;3.05;;;1.13;;
54263;SDS011;40178;53.042;6.406;2022-08-07T11:33:50;2.67;;;1.00;;
54263;SDS011;40178;53.042;6.406;2022-08-07T11:41:18;2.97;;;1.00;;
54263;SDS011;40178;53.042;6.406;2022-08-07T11:51:31;4.38;;;1.10;;
54263;SDS011;40178;53.042;6.406;2022-08-07T11:54:06;3.10;;;1.17;;
54263;SDS011;40178;53.042;6.406;2022-08-07T12:01:52;4.30;;;1.20;;
54263;SDS011;40178;53.042;6.406;2022-08-07T12:06:55;3.90;;;1.20;;
54263;SDS011;40178;53.042;6.406;2022-08-07T12:09:38;3.08;;;1.45;;
54263;SDS011;40178;53.042;6.406;2022-08-07T12:12:07;2.78;;;1.10;;
54263;SDS011;40178;53.042;6.406;2022-08-07T12:14:41;3.75;;;1.40;;
54263;SDS011;40178;53.042;6.406;2022-08-07T12:17:12;3.30;;;1.33;;
54263;SDS011;40178;53.042;6.406;2022-08-07T12:27:32;2.75;;;1.17;;
54263;SDS011;40178;53.042;6.406;2022-08-07T12:30:06;3.50;;;1.25;;
54263;SDS011;40178;53.042;6.406;2022-08-07T12:32:33;2.90;;;1.20;;
54263;SDS011;40178;53.042;6.406;2022-08-07T12:35:02;3.00;;;1.30;;
54263;SDS011;40178;53.042;6.406;2022-08-07T12:37:29;3.97;;;1.65;;
54263;SDS011;40178;53.042;6.406;2022-08-07T12:39:56;3.25;;;1.52;;
54263;SDS011;40178;53.042;6.406;2022-08-07T12:42:24;3.58;;;1.35;;
54263;SDS011;40178;53.042;6.406;2022-08-07T12:44:50;2.90;;;1.30;;
54263;SDS011;40178;53.042;6.406;2022-08-07T12:49:48;3.70;;;1.50;;
54263;SDS011;40178;53.042;6.406;2022-08-07T12:52:17;4.28;;;1.48;;
54263;SDS011;40178;53.042;6.406;2022-08-07T12:57:31;3.10;;;1.38;;
54263;SDS011;40178;53.042;6.406;2022-08-07T12:59:59;3.90;;;1.48;;
54263;SDS011;40178;53.042;6.406;2022-08-07T13:02:35;3.53;;;1.40;;
54263;SDS011;40178;53.042;6.406;2022-08-07T13:15:34;3.67;;;1.50;;
54263;SDS011;40178;53.042;6.406;2022-08-07T13:20:54;5.10;;;1.80;;
54263;SDS011;40178;53.042;6.406;2022-08-07T13:25:54;4.18;;;1.60;;
54263;SDS011;40178;53.042;6.406;2022-08-07T13:28:27;3.75;;;1.38;;
54263;SDS011;40178;53.042;6.406;2022-08-07T13:31:08;4.72;;;1.50;;
54263;SDS011;40178;53.042;6.406;2022-08-07T13:36:22;4.28;;;1.95;;
54263;SDS011;40178;53.042;6.406;2022-08-07T13:38:54;3.42;;;1.50;;
54263;SDS011;40178;53.042;6.406;2022-08-07T13:41:43;3.92;;;1.95;;
54263;SDS011;40178;53.042;6.406;2022-08-07T13:44:13;5.53;;;2.08;;
54263;SDS011;40178;53.042;6.406;2022-08-07T13:46:44;4.10;;;1.88;;
54263;SDS011;40178;53.042;6.406;2022-08-07T13:49:10;4.10;;;2.00;;
54263;SDS011;40178;53.042;6.406;2022-08-07T13:51:37;5.18;;;1.95;;
54263;SDS011;40178;53.042;6.406;2022-08-07T13:54:06;4.18;;;1.88;;
54263;SDS011;40178;53.042;6.406;2022-08-07T13:56:35;4.40;;;1.65;;
54263;SDS011;40178;53.042;6.406;2022-08-07T13:59:03;5.35;;;2.22;;
54263;SDS011;40178;53.042;6.406;2022-08-07T14:01:32;5.25;;;1.92;;
54263;SDS011;40178;53.042;6.406;2022-08-07T14:04:00;4.50;;;1.80;;
54263;SDS011;40178;53.042;6.406;2022-08-07T14:06:31;4.13;;;1.88;;
54263;SDS011;40178;53.042;6.406;2022-08-07T14:08:57;7.13;;;1.95;;
54263;SDS011;40178;53.042;6.406;2022-08-07T14:11:24;4.18;;;1.65;;
54263;SDS011;40178;53.042;6.406;2022-08-07T14:13:57;4.65;;;2.10;;
54263;SDS011;40178;53.042;6.406;2022-08-07T14:16:32;4.60;;;2.10;;
54263;SDS011;40178;53.042;6.406;2022-08-07T14:18:59;4.60;;;2.00;;
54263;SDS011;40178;53.042;6.406;2022-08-07T14:21:29;4.00;;;1.65;;
54263;SDS011;40178;53.042;6.406;2022-08-07T14:24:00;3.90;;;1.60;;
54263;SDS011;40178;53.042;6.406;2022-08-07T14:27:12;5.18;;;1.80;;
54263;SDS011;40178;53.042;6.406;2022-08-07T14:29:14;3.42;;;1.30;;
54263;SDS011;40178;53.042;6.406;2022-08-07T14:31:41;4.03;;;1.50;;
54263;SDS011;40178;53.042;6.406;2022-08-07T14:34:08;3.53;;;1.30;;
54263;SDS011;40178;53.042;6.406;2022-08-07T14:36:36;4.47;;;1.65;;
54263;SDS011;40178;53.042;6.406;2022-08-07T14:39:02;3.30;;;1.48;;
54263;SDS011;40178;53.042;6.406;2022-08-07T14:41:29;3.15;;;1.33;;
54263;SDS011;40178;53.042;6.406;2022-08-07T14:43:56;4.30;;;1.55;;
54263;SDS011;40178;53.042;6.406;2022-08-07T14:46:23;4.00;;;1.40;;
54263;SDS011;40178;53.042;6.406;2022-08-07T14:48:50;4.78;;;1.30;;
54263;SDS011;40178;53.042;6.406;2022-08-07T14:51:23;3.13;;;1.40;;
54263;SDS011;40178;53.042;6.406;2022-08-07T14:53:54;2.67;;;1.20;;
54263;SDS011;40178;53.042;6.406;2022-08-07T14:56:21;3.33;;;1.40;;
54263;SDS011;40178;53.042;6.406;2022-08-07T14:58:51;4.13;;;1.20;;
54263;SDS011;40178;53.042;6.406;2022-08-07T15:01:18;2.30;;;0.90;;
54263;SDS011;40178;53.042;6.406;2022-08-07T15:03:48;2.30;;;1.13;;
54263;SDS011;40178;53.042;6.406;2022-08-07T15:06:19;2.65;;;1.10;;
54263;SDS011;40178;53.042;6.406;2022-08-07T15:08:46;2.53;;;1.15;;
54263;SDS011;40178;53.042;6.406;2022-08-07T15:11:17;2.03;;;1.00;;
54263;SDS011;40178;53.042;6.406;2022-08-07T15:13:46;4.07;;;1.10;;
54263;SDS011;40178;53.042;6.406;2022-08-07T15:16:13;4.05;;;1.35;;
54263;SDS011;40178;53.042;6.406;2022-08-07T15:18:42;3.42;;;1.83;;
54263;SDS011;40178;53.042;6.406;2022-08-07T15:21:30;5.30;;;1.30;;
54263;SDS011;40178;53.042;6.406;2022-08-07T15:23:59;5.57;;;1.60;;
54263;SDS011;40178;53.042;6.406;2022-08-07T15:26:34;3.22;;;1.40;;
54263;SDS011;40178;53.042;6.406;2022-08-07T15:29:01;4.60;;;1.30;;
54263;SDS011;40178;53.042;6.406;2022-08-07T15:31:27;6.07;;;1.60;;
54263;SDS011;40178;53.042;6.406;2022-08-07T15:33:57;3.70;;;1.55;;
54263;SDS011;40178;53.042;6.406;2022-08-07T15:36:25;3.05;;;1.63;;
54263;SDS011;40178;53.042;6.406;2022-08-07T15:38:51;3.65;;;1.35;;
54263;SDS011;40178;53.042;6.406;2022-08-07T15:41:20;4.38;;;1.80;;
54263;SDS011;40178;53.042;6.406;2022-08-07T15:43:57;3.72;;;1.63;;
54263;SDS011;40178;53.042;6.406;2022-08-07T15:46:24;4.78;;;1.63;;
54263;SDS011;40178;53.042;6.406;2022-08-07T15:48:54;3.75;;;1.77;;
54263;SDS011;40178;53.042;6.406;2022-08-07T15:51:22;3.72;;;1.42;;
54263;SDS011;40178;53.042;6.406;2022-08-07T15:53:50;4.82;;;1.63;;
54263;SDS011;40178;53.042;6.406;2022-08-07T15:56:16;5.53;;;1.70;;
54263;SDS011;40178;53.042;6.406;2022-08-07T15:58:48;3.90;;;1.60;;
54263;SDS011;40178;53.042;6.406;2022-08-07T16:01:22;3.15;;;1.50;;
54263;SDS011;40178;53.042;6.406;2022-08-07T16:06:15;3.42;;;1.77;;
54263;SDS011;40178;53.042;6.406;2022-08-07T16:08:49;7.37;;;2.10;;
54263;SDS011;40178;53.042;6.406;2022-08-07T16:11:27;3.97;;;2.00;;
54263;SDS011;40178;53.042;6.406;2022-08-07T16:14:06;4.82;;;2.03;;
54263;SDS011;40178;53.042;6.406;2022-08-07T16:16:54;4.22;;;1.65;;
54263;SDS011;40178;53.042;6.406;2022-08-07T16:19:25;3.88;;;1.67;;
54263;SDS011;40178;53.042;6.406;2022-08-07T16:22:03;3.28;;;1.80;;
54263;SDS011;40178;53.042;6.406;2022-08-07T16:24:39;6.30;;;1.95;;
54263;SDS011;40178;53.042;6.406;2022-08-07T16:32:21;4.85;;;2.35;;
54263;SDS011;40178;53.042;6.406;2022-08-07T16:34:48;6.55;;;2.25;;
54263;SDS011;40178;53.042;6.406;2022-08-07T16:45:13;6.13;;;3.20;;
54263;SDS011;40178;53.042;6.406;2022-08-07T16:50:41;7.03;;;3.00;;
54263;SDS011;40178;53.042;6.406;2022-08-07T16:53:14;7.70;;;2.97;;
54263;SDS011;40178;53.042;6.406;2022-08-07T16:58:29;4.93;;;2.10;;
54263;SDS011;40178;53.042;6.406;2022-08-07T17:04:08;5.32;;;2.15;;
54263;SDS011;40178;53.042;6.406;2022-08-07T17:06:40;4.53;;;1.98;;
54263;SDS011;40178;53.042;6.406;2022-08-07T17:09:10;7.28;;;2.58;;
54263;SDS011;40178;53.042;6.406;2022-08-07T17:11:50;4.95;;;2.45;;
54263;SDS011;40178;53.042;6.406;2022-08-07T17:14:30;5.25;;;2.35;;
54263;SDS011;40178;53.042;6.406;2022-08-07T17:16:57;5.50;;;2.72;;
54263;SDS011;40178;53.042;6.406;2022-08-07T17:19:36;5.30;;;2.80;;
54263;SDS011;40178;53.042;6.406;2022-08-07T17:22:06;7.68;;;2.70;;
54263;SDS011;40178;53.042;6.406;2022-08-07T17:32:30;7.22;;;3.08;;
54263;SDS011;40178;53.042;6.406;2022-08-07T17:35:19;6.47;;;3.00;;
54263;SDS011;40178;53.042;6.406;2022-08-07T17:41:21;6.18;;;3.13;;
54263;SDS011;40178;53.042;6.406;2022-08-07T17:43:27;5.72;;;2.88;;
54263;SDS011;40178;53.042;6.406;2022-08-07T17:45:55;8.20;;;2.80;;
54263;SDS011;40178;53.042;6.406;2022-08-07T17:48:26;6.45;;;3.13;;
54263;SDS011;40178;53.042;6.406;2022-08-07T17:56:06;5.45;;;2.97;;
54263;SDS011;40178;53.042;6.406;2022-08-07T17:58:55;6.53;;;2.85;;
54263;SDS011;40178;53.042;6.406;2022-08-07T18:01:29;6.15;;;2.70;;
54263;SDS011;40178;53.042;6.406;2022-08-07T18:06:46;6.82;;;2.97;;
54263;SDS011;40178;53.042;6.406;2022-08-07T18:09:19;6.47;;;2.42;;
54263;SDS011;40178;53.042;6.406;2022-08-07T18:12:07;5.57;;;2.40;;